N7612J KSAN-KSNA
Flight info
| Callsign | N7612J |
|---|---|
| Flight time | 0h 48m |
| Altitude | 6000 |
| Route | SANP3 |
| Aircraft | SR22/L-G/L |
Departure
| Time | 2026-04-26 00:20 |
|---|---|
| Airport | San Diego International Airport (KSAN) |
Arrival
| Time | 2026-04-26 01:08 |
|---|---|
| Airport | John Wayne Orange County International Airport (KSNA) |
| Time | Latitude | Longitude | Altitude | Speed | Heading |
|---|---|---|---|---|---|
| 2026-04-26 00:08 | 32.73360 | -117.17885 | 21 ft | 0 kts | 17° |
| 2026-04-26 00:15 | 32.73365 | -117.17886 | 21 ft | 6 kts | 333° |
| 2026-04-26 00:16 | 32.73373 | -117.17942 | 20 ft | 3 kts | 248° |
| 2026-04-26 00:16 | 32.73370 | -117.17969 | 20 ft | 0 kts | 263° |
| 2026-04-26 00:16 | 32.73330 | -117.17979 | 19 ft | 8 kts | 152° |
| 2026-04-26 00:17 | 32.73236 | -117.17963 | 18 ft | 14 kts | 125° |
| 2026-04-26 00:17 | 32.73192 | -117.17823 | 19 ft | 27 kts | 107° |
| 2026-04-26 00:17 | 32.73143 | -117.17618 | 22 ft | 23 kts | 109° |
| 2026-04-26 00:17 | 32.73108 | -117.17568 | 22 ft | 0 kts | 148° |
| 2026-04-26 00:18 | 32.73042 | -117.17553 | 22 ft | 15 kts | 219° |
| 2026-04-26 00:18 | 32.73027 | -117.17610 | 21 ft | 0 kts | 288° |
| 2026-04-26 00:19 | 32.73045 | -117.17695 | 21 ft | 31 kts | 284° |
| 2026-04-26 00:20 | 32.73138 | -117.18076 | 16 ft | 64 kts | 287° |
| 2026-04-26 00:20 | 32.73295 | -117.18681 | 220 ft | 82 kts | 289° |
| 2026-04-26 00:20 | 32.73676 | -117.19102 | 648 ft | 77 kts | 320° |
| 2026-04-26 00:20 | 32.74150 | -117.19444 | 932 ft | 84 kts | 320° |
| 2026-04-26 00:21 | 32.74660 | -117.19814 | 1128 ft | 91 kts | 321° |
| 2026-04-26 00:21 | 32.75198 | -117.20216 | 1364 ft | 91 kts | 320° |
| 2026-04-26 00:21 | 32.75734 | -117.20618 | 1504 ft | 93 kts | 321° |
| 2026-04-26 00:21 | 32.76251 | -117.21005 | 1644 ft | 93 kts | 320° |
| 2026-04-26 00:22 | 32.76677 | -117.21326 | 1752 ft | 95 kts | 321° |
| 2026-04-26 00:22 | 32.76821 | -117.21435 | 1795 ft | 94 kts | 320° |
| 2026-04-26 00:22 | 32.77351 | -117.21830 | 1943 ft | 94 kts | 321° |
| 2026-04-26 00:22 | 32.77899 | -117.22239 | 2094 ft | 94 kts | 321° |
| 2026-04-26 00:23 | 32.78427 | -117.22637 | 2237 ft | 95 kts | 320° |
| 2026-04-26 00:23 | 32.78967 | -117.23048 | 2379 ft | 95 kts | 320° |
| 2026-04-26 00:23 | 32.79517 | -117.23467 | 2527 ft | 95 kts | 320° |
| 2026-04-26 00:23 | 32.80061 | -117.23882 | 2677 ft | 95 kts | 321° |
| 2026-04-26 00:24 | 32.80612 | -117.24299 | 2839 ft | 94 kts | 321° |
| 2026-04-26 00:24 | 32.81174 | -117.24689 | 3001 ft | 95 kts | 331° |
| 2026-04-26 00:24 | 32.81802 | -117.24963 | 3147 ft | 97 kts | 333° |
| 2026-04-26 00:24 | 32.82437 | -117.25227 | 3337 ft | 95 kts | 333° |
| 2026-04-26 00:25 | 32.83031 | -117.25469 | 3543 ft | 90 kts | 332° |
| 2026-04-26 00:25 | 32.83627 | -117.25710 | 3716 ft | 89 kts | 333° |
| 2026-04-26 00:25 | 32.84214 | -117.25944 | 3879 ft | 89 kts | 332° |
| 2026-04-26 00:25 | 32.84815 | -117.26184 | 4044 ft | 89 kts | 332° |
| 2026-04-26 00:26 | 32.85414 | -117.26421 | 4213 ft | 89 kts | 332° |
| 2026-04-26 00:26 | 32.86010 | -117.26658 | 4375 ft | 89 kts | 332° |
| 2026-04-26 00:26 | 32.86602 | -117.26892 | 4533 ft | 90 kts | 332° |
| 2026-04-26 00:26 | 32.87200 | -117.27129 | 4691 ft | 91 kts | 333° |
| 2026-04-26 00:27 | 32.87806 | -117.27369 | 4856 ft | 91 kts | 333° |
| 2026-04-26 00:27 | 32.88405 | -117.27605 | 5018 ft | 91 kts | 332° |
| 2026-04-26 00:27 | 32.89010 | -117.27845 | 5180 ft | 91 kts | 333° |
| 2026-04-26 00:27 | 32.89616 | -117.28085 | 5339 ft | 92 kts | 333° |
| 2026-04-26 00:28 | 32.90227 | -117.28326 | 5505 ft | 92 kts | 333° |
| 2026-04-26 00:28 | 32.90836 | -117.28567 | 5669 ft | 92 kts | 333° |
| 2026-04-26 00:28 | 32.91465 | -117.28817 | 5847 ft | 94 kts | 333° |
| 2026-04-26 00:28 | 32.92108 | -117.29073 | 5955 ft | 104 kts | 334° |
| 2026-04-26 00:29 | 32.92860 | -117.29372 | 5978 ft | 125 kts | 335° |
| 2026-04-26 00:29 | 32.93748 | -117.29723 | 5972 ft | 142 kts | 336° |
| 2026-04-26 00:29 | 32.94717 | -117.30106 | 5964 ft | 152 kts | 336° |
| 2026-04-26 00:29 | 32.95762 | -117.30519 | 5960 ft | 158 kts | 336° |
| 2026-04-26 00:30 | 32.96777 | -117.30921 | 5957 ft | 162 kts | 337° |
| 2026-04-26 00:30 | 32.97774 | -117.31316 | 5955 ft | 164 kts | 336° |
| 2026-04-26 00:30 | 32.98803 | -117.31724 | 5955 ft | 165 kts | 336° |
| 2026-04-26 00:30 | 32.99812 | -117.32124 | 5955 ft | 166 kts | 336° |
| 2026-04-26 00:31 | 33.00827 | -117.32526 | 5957 ft | 166 kts | 336° |
| 2026-04-26 00:31 | 33.01869 | -117.32940 | 5954 ft | 167 kts | 336° |
| 2026-04-26 00:31 | 33.02983 | -117.33382 | 5950 ft | 167 kts | 337° |
| 2026-04-26 00:31 | 33.04094 | -117.33823 | 5949 ft | 167 kts | 336° |
| 2026-04-26 00:32 | 33.05204 | -117.34264 | 5951 ft | 167 kts | 337° |
| 2026-04-26 00:32 | 33.06303 | -117.34700 | 5950 ft | 167 kts | 336° |
| 2026-04-26 00:32 | 33.08532 | -117.35586 | 5949 ft | 167 kts | 337° |
| 2026-04-26 00:33 | 33.09642 | -117.36027 | 5946 ft | 167 kts | 336° |
| 2026-04-26 00:33 | 33.10749 | -117.36467 | 5948 ft | 167 kts | 337° |
| 2026-04-26 00:33 | 33.11891 | -117.36922 | 5947 ft | 166 kts | 337° |
| 2026-04-26 00:33 | 33.12996 | -117.37361 | 5948 ft | 166 kts | 337° |
| 2026-04-26 00:34 | 33.14030 | -117.37772 | 5946 ft | 167 kts | 337° |
| 2026-04-26 00:34 | 33.15075 | -117.38188 | 5944 ft | 167 kts | 337° |
| 2026-04-26 00:34 | 33.16137 | -117.38611 | 5943 ft | 167 kts | 337° |
| 2026-04-26 00:34 | 33.17167 | -117.39021 | 5942 ft | 166 kts | 336° |
| 2026-04-26 00:35 | 33.18240 | -117.39449 | 5942 ft | 166 kts | 337° |
| 2026-04-26 00:35 | 33.19331 | -117.39883 | 5942 ft | 166 kts | 337° |
| 2026-04-26 00:35 | 33.20432 | -117.40321 | 5942 ft | 166 kts | 336° |
| 2026-04-26 00:35 | 33.21510 | -117.40751 | 5966 ft | 165 kts | 336° |
| 2026-04-26 00:36 | 33.22603 | -117.41187 | 5967 ft | 165 kts | 336° |
| 2026-04-26 00:36 | 33.23698 | -117.41642 | 5966 ft | 164 kts | 330° |
| 2026-04-26 00:36 | 33.24583 | -117.42484 | 5969 ft | 160 kts | 313° |
| 2026-04-26 00:36 | 33.25402 | -117.43394 | 5967 ft | 161 kts | 312° |
| 2026-04-26 00:37 | 33.26215 | -117.44312 | 5964 ft | 161 kts | 312° |
| 2026-04-26 00:37 | 33.27031 | -117.45246 | 5959 ft | 161 kts | 311° |
| 2026-04-26 00:37 | 33.27822 | -117.46157 | 5961 ft | 161 kts | 311° |
| 2026-04-26 00:37 | 33.28569 | -117.47019 | 5960 ft | 161 kts | 311° |
| 2026-04-26 00:38 | 33.29305 | -117.47873 | 5960 ft | 161 kts | 311° |
| 2026-04-26 00:38 | 33.30032 | -117.48717 | 5960 ft | 161 kts | 311° |
| 2026-04-26 00:38 | 33.30761 | -117.49566 | 5959 ft | 161 kts | 311° |
| 2026-04-26 00:38 | 33.31499 | -117.50425 | 5957 ft | 161 kts | 311° |
| 2026-04-26 00:39 | 33.32224 | -117.51270 | 5954 ft | 161 kts | 311° |
| 2026-04-26 00:39 | 33.32943 | -117.52110 | 5951 ft | 161 kts | 311° |
| 2026-04-26 00:39 | 33.33695 | -117.52986 | 5951 ft | 161 kts | 311° |
| 2026-04-26 00:39 | 33.34446 | -117.53863 | 5951 ft | 161 kts | 311° |
| 2026-04-26 00:40 | 33.35159 | -117.54695 | 5953 ft | 161 kts | 311° |
| 2026-04-26 00:40 | 33.35869 | -117.55524 | 5950 ft | 161 kts | 311° |
| 2026-04-26 00:40 | 33.36600 | -117.56377 | 5946 ft | 161 kts | 311° |
| 2026-04-26 00:40 | 33.37339 | -117.57240 | 5948 ft | 161 kts | 311° |
| 2026-04-26 00:41 | 33.38056 | -117.58078 | 5947 ft | 161 kts | 311° |
| 2026-04-26 00:41 | 33.38770 | -117.58913 | 5947 ft | 161 kts | 311° |
| 2026-04-26 00:41 | 33.39506 | -117.59772 | 5947 ft | 161 kts | 311° |
| 2026-04-26 00:41 | 33.40245 | -117.60637 | 5947 ft | 161 kts | 311° |
| 2026-04-26 00:42 | 33.41025 | -117.61549 | 5946 ft | 161 kts | 311° |
| 2026-04-26 00:42 | 33.41819 | -117.62477 | 5951 ft | 161 kts | 311° |
| 2026-04-26 00:42 | 33.42613 | -117.63406 | 5951 ft | 161 kts | 313° |
| 2026-04-26 00:42 | 33.43337 | -117.64253 | 5950 ft | 161 kts | 311° |
| 2026-04-26 00:43 | 33.44076 | -117.65119 | 5944 ft | 161 kts | 311° |
| 2026-04-26 00:43 | 33.44807 | -117.65974 | 5949 ft | 161 kts | 310° |
| 2026-04-26 00:43 | 33.45522 | -117.66811 | 5947 ft | 161 kts | 311° |
| 2026-04-26 00:43 | 33.46243 | -117.67657 | 5948 ft | 161 kts | 310° |
| 2026-04-26 00:44 | 33.46998 | -117.68541 | 5949 ft | 161 kts | 310° |
| 2026-04-26 00:44 | 33.47785 | -117.69463 | 5947 ft | 161 kts | 311° |
| 2026-04-26 00:44 | 33.48638 | -117.70367 | 5939 ft | 162 kts | 317° |
| 2026-04-26 00:44 | 33.49677 | -117.70942 | 5941 ft | 167 kts | 341° |
| 2026-04-26 00:45 | 33.50818 | -117.71033 | 5939 ft | 170 kts | 358° |
| 2026-04-26 00:45 | 33.51588 | -117.70955 | 5946 ft | 171 kts | 1° |
| 2026-04-26 00:45 | 33.53089 | -117.70782 | 5950 ft | 172 kts | 1° |
| 2026-04-26 00:45 | 33.54209 | -117.70657 | 5954 ft | 172 kts | 1° |
| 2026-04-26 00:46 | 33.55304 | -117.70535 | 5958 ft | 172 kts | 1° |
| 2026-04-26 00:46 | 33.56404 | -117.70412 | 5958 ft | 173 kts | 1° |
| 2026-04-26 00:46 | 33.57555 | -117.70285 | 5955 ft | 173 kts | 1° |
| 2026-04-26 00:46 | 33.58695 | -117.70167 | 5816 ft | 177 kts | 1° |
| 2026-04-26 00:47 | 33.59939 | -117.70042 | 5606 ft | 181 kts | 1° |
| 2026-04-26 00:47 | 33.61231 | -117.69909 | 5384 ft | 183 kts | 1° |
| 2026-04-26 00:47 | 33.62505 | -117.69779 | 5166 ft | 185 kts | 1° |
| 2026-04-26 00:47 | 33.63782 | -117.69646 | 4992 ft | 183 kts | 1° |
| 2026-04-26 00:48 | 33.65024 | -117.69508 | 4963 ft | 174 kts | 1° |
| 2026-04-26 00:48 | 33.66233 | -117.69373 | 4958 ft | 165 kts | 1° |
| 2026-04-26 00:48 | 33.67358 | -117.69241 | 4958 ft | 158 kts | 1° |
| 2026-04-26 00:48 | 33.68428 | -117.69118 | 4958 ft | 153 kts | 1° |
| 2026-04-26 00:49 | 33.69491 | -117.68994 | 4957 ft | 148 kts | 1° |
| 2026-04-26 00:49 | 33.70533 | -117.68868 | 4958 ft | 144 kts | 1° |
| 2026-04-26 00:49 | 33.71510 | -117.68747 | 4961 ft | 141 kts | 1° |
| 2026-04-26 00:49 | 33.72445 | -117.68625 | 4962 ft | 138 kts | 1° |
| 2026-04-26 00:50 | 33.73356 | -117.68508 | 4961 ft | 136 kts | 1° |
| 2026-04-26 00:50 | 33.74284 | -117.68393 | 4961 ft | 134 kts | 1° |
| 2026-04-26 00:50 | 33.75172 | -117.68282 | 4961 ft | 133 kts | 1° |
| 2026-04-26 00:50 | 33.76058 | -117.68172 | 4959 ft | 132 kts | 1° |
| 2026-04-26 00:51 | 33.76916 | -117.68064 | 4959 ft | 130 kts | 1° |
| 2026-04-26 00:51 | 33.77794 | -117.67960 | 4960 ft | 129 kts | 1° |
| 2026-04-26 00:51 | 33.78667 | -117.67856 | 4958 ft | 129 kts | 1° |
| 2026-04-26 00:51 | 33.79518 | -117.67743 | 5084 ft | 116 kts | 1° |
| 2026-04-26 00:52 | 33.80294 | -117.67631 | 5143 ft | 110 kts | 1° |
| 2026-04-26 00:52 | 33.81075 | -117.67517 | 5156 ft | 109 kts | 1° |
| 2026-04-26 00:52 | 33.81871 | -117.67403 | 5181 ft | 124 kts | 1° |
| 2026-04-26 00:52 | 33.82804 | -117.67280 | 5180 ft | 141 kts | 1° |
| 2026-04-26 00:53 | 33.83771 | -117.67440 | 5174 ft | 145 kts | 330° |
| 2026-04-26 00:53 | 33.84631 | -117.68090 | 5171 ft | 149 kts | 321° |
| 2026-04-26 00:53 | 33.85495 | -117.68796 | 5165 ft | 153 kts | 321° |
| 2026-04-26 00:53 | 33.86493 | -117.69300 | 5154 ft | 162 kts | 353° |
| 2026-04-26 00:54 | 33.87556 | -117.68873 | 5155 ft | 169 kts | 37° |
| 2026-04-26 00:54 | 33.88276 | -117.67644 | 4905 ft | 185 kts | 61° |
| 2026-04-26 00:54 | 33.88901 | -117.66240 | 4598 ft | 194 kts | 61° |
| 2026-04-26 00:54 | 33.89545 | -117.64794 | 4315 ft | 198 kts | 61° |
| 2026-04-26 00:55 | 33.90176 | -117.63378 | 4259 ft | 190 kts | 61° |
| 2026-04-26 00:55 | 33.90813 | -117.62027 | 4126 ft | 187 kts | 51° |
| 2026-04-26 00:55 | 33.91810 | -117.61268 | 3987 ft | 182 kts | 9° |
| 2026-04-26 00:55 | 33.92938 | -117.61460 | 3857 ft | 175 kts | 327° |
| 2026-04-26 00:56 | 33.93605 | -117.62425 | 3688 ft | 137 kts | 283° |
| 2026-04-26 00:56 | 33.93589 | -117.63497 | 3521 ft | 124 kts | 259° |
| 2026-04-26 00:56 | 33.93426 | -117.64563 | 3472 ft | 130 kts | 257° |
| 2026-04-26 00:56 | 33.93228 | -117.65627 | 3459 ft | 132 kts | 255° |
| 2026-04-26 00:57 | 33.93010 | -117.66711 | 3457 ft | 132 kts | 255° |
| 2026-04-26 00:57 | 33.92779 | -117.67815 | 3457 ft | 133 kts | 255° |
| 2026-04-26 00:57 | 33.92549 | -117.68900 | 3455 ft | 133 kts | 254° |
| 2026-04-26 00:57 | 33.92322 | -117.69959 | 3459 ft | 133 kts | 255° |
| 2026-04-26 00:58 | 33.92065 | -117.70875 | 3457 ft | 133 kts | 237° |
| 2026-04-26 00:58 | 33.91418 | -117.71455 | 3524 ft | 131 kts | 202° |
| 2026-04-26 00:58 | 33.90676 | -117.71969 | 3581 ft | 127 kts | 219° |
| 2026-04-26 00:58 | 33.89986 | -117.72545 | 3654 ft | 126 kts | 215° |
| 2026-04-26 00:59 | 33.89232 | -117.73103 | 3682 ft | 128 kts | 212° |
| 2026-04-26 00:59 | 33.88388 | -117.73682 | 3498 ft | 143 kts | 211° |
| 2026-04-26 00:59 | 33.87478 | -117.74279 | 3343 ft | 151 kts | 210° |
| 2026-04-26 00:59 | 33.86594 | -117.74847 | 3197 ft | 132 kts | 210° |
| 2026-04-26 01:00 | 33.85854 | -117.75319 | 3089 ft | 106 kts | 211° |
| 2026-04-26 01:00 | 33.85208 | -117.75730 | 2983 ft | 101 kts | 211° |
| 2026-04-26 01:00 | 33.84589 | -117.76124 | 2852 ft | 100 kts | 211° |
| 2026-04-26 01:00 | 33.83971 | -117.76516 | 2740 ft | 99 kts | 212° |
| 2026-04-26 01:01 | 33.83371 | -117.76896 | 2661 ft | 98 kts | 211° |
| 2026-04-26 01:01 | 33.82754 | -117.77287 | 2586 ft | 97 kts | 212° |
| 2026-04-26 01:01 | 33.82198 | -117.77640 | 2517 ft | 97 kts | 211° |
| 2026-04-26 01:01 | 33.81688 | -117.77962 | 2459 ft | 96 kts | 212° |
| 2026-04-26 01:02 | 33.81158 | -117.78299 | 2392 ft | 96 kts | 212° |
| 2026-04-26 01:02 | 33.80592 | -117.78657 | 2302 ft | 97 kts | 212° |
| 2026-04-26 01:02 | 33.79995 | -117.79035 | 2179 ft | 99 kts | 212° |
| 2026-04-26 01:02 | 33.79452 | -117.79378 | 2149 ft | 94 kts | 212° |
| 2026-04-26 01:03 | 33.78922 | -117.79713 | 2123 ft | 93 kts | 212° |
| 2026-04-26 01:03 | 33.78405 | -117.80041 | 2100 ft | 91 kts | 212° |
| 2026-04-26 01:03 | 33.77875 | -117.80376 | 2093 ft | 91 kts | 213° |
| 2026-04-26 01:03 | 33.77361 | -117.80702 | 2040 ft | 94 kts | 212° |
| 2026-04-26 01:04 | 33.76848 | -117.81027 | 1946 ft | 98 kts | 211° |
| 2026-04-26 01:04 | 33.76311 | -117.81366 | 1847 ft | 100 kts | 211° |
| 2026-04-26 01:04 | 33.75809 | -117.81683 | 1803 ft | 94 kts | 212° |
| 2026-04-26 01:04 | 33.75283 | -117.82016 | 1699 ft | 95 kts | 212° |
| 2026-04-26 01:05 | 33.74725 | -117.82369 | 1584 ft | 96 kts | 211° |
| 2026-04-26 01:05 | 33.74131 | -117.82745 | 1452 ft | 96 kts | 211° |
| 2026-04-26 01:05 | 33.73523 | -117.83129 | 1284 ft | 96 kts | 211° |
| 2026-04-26 01:05 | 33.72973 | -117.83477 | 1121 ft | 95 kts | 211° |
| 2026-04-26 01:06 | 33.72451 | -117.83807 | 966 ft | 96 kts | 211° |
| 2026-04-26 01:06 | 33.71914 | -117.84146 | 810 ft | 96 kts | 210° |
| 2026-04-26 01:06 | 33.71350 | -117.84502 | 646 ft | 97 kts | 210° |
| 2026-04-26 01:06 | 33.70768 | -117.84869 | 540 ft | 90 kts | 210° |
| 2026-04-26 01:07 | 33.70289 | -117.85171 | 559 ft | 77 kts | 210° |
| 2026-04-26 01:07 | 33.69857 | -117.85442 | 500 ft | 75 kts | 210° |
| 2026-04-26 01:07 | 33.69409 | -117.85715 | 366 ft | 81 kts | 207° |
| 2026-04-26 01:07 | 33.68944 | -117.86003 | 279 ft | 76 kts | 209° |
| 2026-04-26 01:08 | 33.68531 | -117.86265 | 146 ft | 72 kts | 208° |
| 2026-04-26 01:08 | 33.68145 | -117.86522 | 51 ft | 66 kts | 209° |
| 2026-04-26 01:08 | 33.67833 | -117.86717 | 44 ft | 43 kts | 208° |
| 2026-04-26 01:08 | 33.67639 | -117.86843 | 47 ft | 17 kts | 209° |
| 2026-04-26 01:09 | 33.67583 | -117.86905 | 50 ft | 9 kts | 248° |
| 2026-04-26 01:09 | 33.67594 | -117.86971 | 50 ft | 6 kts | 301° |
| 2026-04-26 01:09 | 33.67598 | -117.86980 | 50 ft | 0 kts | 294° |
| 2026-04-26 01:10 | 33.67551 | -117.87047 | 50 ft | 18 kts | 207° |
| 2026-04-26 01:11 | 33.67437 | -117.87121 | 50 ft | 18 kts | 211° |
| 2026-04-26 01:11 | 33.67404 | -117.87201 | 50 ft | 9 kts | 271° |
| 2026-04-26 01:11 | 33.67396 | -117.87244 | 50 ft | 0 kts | 150° |
| 2026-04-26 01:11 | 33.67396 | -117.87243 | 50 ft | 0 kts | 127° |